createdAt,value
2023-03-07T00:00:16.327Z,9.55
2023-03-07T00:02:43.671Z,8.93
2023-03-07T00:05:10.805Z,9.98
2023-03-07T00:07:38.713Z,8.73
2023-03-07T00:10:06.135Z,9.65
2023-03-07T00:12:33.146Z,9.02
2023-03-07T00:15:00.280Z,8.35
2023-03-07T00:17:27.240Z,9.07
2023-03-07T00:19:54.292Z,9.15
2023-03-07T00:22:21.441Z,7.90
2023-03-07T00:24:48.858Z,10.00
2023-03-07T00:27:16.745Z,9.13
2023-03-07T00:29:43.509Z,7.63
2023-03-07T00:32:10.478Z,10.25
2023-03-07T00:34:37.480Z,9.38
2023-03-07T00:37:04.539Z,6.40
2023-03-07T00:39:31.554Z,8.75
2023-03-07T00:41:58.577Z,8.55
2023-03-07T00:44:30.148Z,9.32
2023-03-07T00:46:58.060Z,8.25
2023-03-07T00:49:25.148Z,7.93
2023-03-07T00:51:52.226Z,9.65
2023-03-07T00:54:19.172Z,9.15
2023-03-07T00:56:47.074Z,8.68
2023-03-07T00:59:14.978Z,9.50
2023-03-07T01:01:42.011Z,9.63
2023-03-07T01:04:09.121Z,10.60
2023-03-07T01:06:36.529Z,7.28
2023-03-07T01:09:07.321Z,7.90
2023-03-07T01:11:35.321Z,9.15
2023-03-07T01:14:04.504Z,9.75
2023-03-07T01:16:34.731Z,7.03
2023-03-07T01:19:04.987Z,9.10
2023-03-07T01:21:37.825Z,8.70
2023-03-07T01:24:12.799Z,8.70
2023-03-07T01:26:40.045Z,8.68
2023-03-07T01:29:07.459Z,5.45
2023-03-07T01:31:35.108Z,8.60
2023-03-07T01:34:03.557Z,10.93
2023-03-07T01:36:33.615Z,8.48
2023-03-07T01:39:06.329Z,8.88
2023-03-07T01:41:34.778Z,10.00
2023-03-07T01:44:05.284Z,9.23
2023-03-07T01:46:43.014Z,8.90
2023-03-07T01:49:34.521Z,7.80
2023-03-07T01:52:04.260Z,9.15
2023-03-07T01:54:34.366Z,9.32
2023-03-07T01:57:03.336Z,7.90
2023-03-07T01:59:36.898Z,7.07
2023-03-07T02:02:12.098Z,7.53
2023-03-07T02:04:45.370Z,8.25
2023-03-07T02:07:14.039Z,6.93
2023-03-07T02:09:42.732Z,9.38
2023-03-07T02:12:10.403Z,9.07
2023-03-07T02:14:37.530Z,9.32
2023-03-07T02:17:04.444Z,9.57
2023-03-07T02:19:57.704Z,7.60
2023-03-07T02:22:27.245Z,8.55
2023-03-07T02:25:00.305Z,8.15
2023-03-07T02:27:30.056Z,9.05
2023-03-07T02:29:56.787Z,9.65
2023-03-07T02:32:23.659Z,9.32
2023-03-07T02:34:50.605Z,9.50
2023-03-07T02:37:24.020Z,10.45
2023-03-07T02:39:51.290Z,8.45
2023-03-07T02:42:23.742Z,9.63
2023-03-07T02:45:18.376Z,9.55
2023-03-07T02:47:46.798Z,9.73
2023-03-07T02:50:15.630Z,9.93
2023-03-07T02:52:42.604Z,10.27
2023-03-07T02:55:09.772Z,9.50
2023-03-07T02:57:36.643Z,10.32
2023-03-07T03:00:07.407Z,9.30
2023-03-07T03:02:34.621Z,5.03
2023-03-07T03:05:01.624Z,9.95
2023-03-07T03:07:28.443Z,10.50
2023-03-07T03:09:55.673Z,8.82
2023-03-07T03:12:22.584Z,10.30
2023-03-07T03:14:49.632Z,9.68
2023-03-07T03:17:16.746Z,10.00
2023-03-07T03:19:43.918Z,9.63
2023-03-07T03:22:10.861Z,9.65
2023-03-07T03:24:42.400Z,8.43
2023-03-07T03:27:10.293Z,8.02
2023-03-07T03:29:37.054Z,8.73
2023-03-07T03:32:04.109Z,7.68
2023-03-07T03:34:31.099Z,9.63
2023-03-07T03:36:57.976Z,8.90
2023-03-07T03:39:26.113Z,9.23
2023-03-07T03:41:52.932Z,9.98
2023-03-07T03:44:19.969Z,8.95
2023-03-07T03:46:48.639Z,9.70
2023-03-07T03:49:16.886Z,10.55
2023-03-07T03:51:43.987Z,11.07
2023-03-07T03:54:11.801Z,9.85
2023-03-07T03:56:38.954Z,9.68
2023-03-07T03:59:05.990Z,10.95
2023-03-07T04:01:33.063Z,8.63
2023-03-07T04:04:00.117Z,9.52
2023-03-07T04:06:29.469Z,9.05
2023-03-07T04:08:56.869Z,10.65
2023-03-07T04:11:24.944Z,9.65
2023-03-07T04:13:52.613Z,12.23
2023-03-07T04:16:19.791Z,10.73
2023-03-07T04:18:46.860Z,8.02
2023-03-07T04:21:14.017Z,10.68
2023-03-07T04:23:41.179Z,8.73
2023-03-07T04:26:10.546Z,10.68
2023-03-07T04:28:45.248Z,9.75
2023-03-07T04:31:17.683Z,8.60
2023-03-07T04:33:45.486Z,9.45
2023-03-07T04:36:13.614Z,10.05
2023-03-07T04:38:41.092Z,8.73
2023-03-07T04:41:09.280Z,10.75
2023-03-07T04:43:37.434Z,9.05
2023-03-07T04:46:04.740Z,9.45
2023-03-07T04:48:32.921Z,9.90
2023-03-07T04:50:59.880Z,10.20
2023-03-07T04:53:26.995Z,11.05
2023-03-07T04:56:01.193Z,9.40
2023-03-07T04:58:29.108Z,10.27
2023-03-07T05:00:58.671Z,9.70
2023-03-07T05:03:26.674Z,11.35
2023-03-07T05:05:54.092Z,10.18
2023-03-07T05:08:22.923Z,9.88
2023-03-07T05:10:50.061Z,10.07
2023-03-07T05:13:18.011Z,10.55
2023-03-07T05:15:49.516Z,9.88
2023-03-07T05:18:16.921Z,12.15
2023-03-07T05:20:43.967Z,10.85
2023-03-07T05:23:11.055Z,10.43
2023-03-07T05:25:38.138Z,11.90
2023-03-07T05:28:05.150Z,12.02
2023-03-07T05:30:32.249Z,11.15
2023-03-07T05:32:59.311Z,10.40
2023-03-07T05:35:26.495Z,7.97
2023-03-07T05:37:53.555Z,10.57
2023-03-07T05:40:20.395Z,11.02
2023-03-07T05:42:47.474Z,10.95
2023-03-07T05:45:15.228Z,9.93
2023-03-07T05:47:42.320Z,10.88
2023-03-07T05:50:10.087Z,11.02
2023-03-07T05:52:36.828Z,10.68
2023-03-07T05:55:04.538Z,11.65
2023-03-07T05:57:31.341Z,9.07
2023-03-07T05:59:58.050Z,10.80
2023-03-07T06:02:25.204Z,11.55
2023-03-07T06:04:52.140Z,9.38
2023-03-07T06:07:19.995Z,10.40
2023-03-07T06:09:47.031Z,10.65
2023-03-07T06:12:14.160Z,10.10
2023-03-07T06:14:41.527Z,10.77
2023-03-07T06:17:08.538Z,9.10
2023-03-07T06:19:35.650Z,9.88
2023-03-07T06:22:02.632Z,9.15
2023-03-07T06:24:30.557Z,10.70
2023-03-07T06:26:57.740Z,9.90
2023-03-07T06:29:24.518Z,10.13
2023-03-07T06:31:51.279Z,7.78
2023-03-07T06:34:18.341Z,9.75
2023-03-07T06:36:46.246Z,12.13
2023-03-07T06:39:13.563Z,11.07
2023-03-07T06:41:41.548Z,9.20
2023-03-07T06:44:10.822Z,9.75
2023-03-07T06:46:37.634Z,9.30
2023-03-07T06:49:04.729Z,9.88
2023-03-07T06:51:31.814Z,10.00
2023-03-07T06:53:59.006Z,10.45
2023-03-07T06:56:29.766Z,9.85
2023-03-07T06:58:56.656Z,10.73
2023-03-07T07:01:23.530Z,9.07
2023-03-07T07:03:50.620Z,10.07
2023-03-07T07:06:17.786Z,10.10
2023-03-07T07:08:44.687Z,10.02
2023-03-07T07:11:11.767Z,7.93
2023-03-07T07:13:39.684Z,9.88
2023-03-07T07:16:08.152Z,9.38
2023-03-07T07:18:35.438Z,9.35
2023-03-07T07:21:02.469Z,10.35
2023-03-07T07:23:29.519Z,9.57
2023-03-07T07:25:56.519Z,9.38
2023-03-07T07:28:23.611Z,9.95
2023-03-07T07:30:50.401Z,9.25
2023-03-07T07:33:17.354Z,8.98
2023-03-07T07:35:45.154Z,10.07
2023-03-07T07:38:12.738Z,11.40
2023-03-07T07:40:40.058Z,8.75
2023-03-07T07:43:07.323Z,10.20
2023-03-07T07:45:34.067Z,10.43
2023-03-07T07:48:01.175Z,13.20
2023-03-07T07:50:28.288Z,11.00
2023-03-07T07:52:55.315Z,12.23
2023-03-07T07:55:22.447Z,13.10
2023-03-07T07:57:49.378Z,10.75
2023-03-07T08:00:21.127Z,11.73
2023-03-07T08:02:51.773Z,12.07
2023-03-07T08:05:20.600Z,12.27
2023-03-07T08:07:47.818Z,13.90
2023-03-07T08:10:16.489Z,14.13
2023-03-07T08:12:45.021Z,13.63
2023-03-07T08:15:12.887Z,13.35
2023-03-07T08:17:39.764Z,12.23
2023-03-07T08:20:10.600Z,12.77
2023-03-07T08:22:38.215Z,11.20
2023-03-07T08:25:06.438Z,12.88
2023-03-07T08:27:34.185Z,10.85
2023-03-07T08:30:01.521Z,12.30
2023-03-07T08:32:28.785Z,12.57
2023-03-07T08:34:56.006Z,13.82
2023-03-07T08:37:23.034Z,12.73
2023-03-07T08:39:50.144Z,12.85
2023-03-07T08:42:17.156Z,12.85
2023-03-07T08:44:44.249Z,13.77
2023-03-07T08:47:13.352Z,13.60
2023-03-07T08:49:41.045Z,13.13
2023-03-07T08:52:08.212Z,14.68
2023-03-07T08:54:35.287Z,13.90
2023-03-07T08:57:03.122Z,13.75
2023-03-07T08:59:30.135Z,14.43
2023-03-07T09:01:57.658Z,14.63
2023-03-07T09:04:24.838Z,13.88
2023-03-07T09:06:52.286Z,13.40
2023-03-07T09:09:19.135Z,13.18
2023-03-07T09:11:46.190Z,13.52
2023-03-07T09:14:13.226Z,15.95
2023-03-07T09:16:40.614Z,14.38
2023-03-07T09:19:07.754Z,15.68
2023-03-07T09:21:34.827Z,14.95
2023-03-07T09:24:01.896Z,15.85
2023-03-07T09:26:28.891Z,14.45
2023-03-07T09:28:55.929Z,16.60
2023-03-07T09:31:22.850Z,15.50
2023-03-07T09:33:50.020Z,16.85
2023-03-07T09:36:18.271Z,17.00
2023-03-07T09:38:46.133Z,17.33
2023-03-07T09:41:31.746Z,14.55
2023-03-07T09:44:16.016Z,17.20
2023-03-07T09:47:02.306Z,15.35
2023-03-07T09:49:49.996Z,15.55
2023-03-07T09:52:21.836Z,14.45
2023-03-07T09:55:01.113Z,13.80
2023-03-07T09:57:34.526Z,12.40
2023-03-07T10:00:10.824Z,12.23
2023-03-07T10:02:52.935Z,10.90
2023-03-07T10:05:37.543Z,11.65
2023-03-07T10:08:05.404Z,13.02
2023-03-07T10:10:52.436Z,11.70
2023-03-07T10:13:47.095Z,10.95
2023-03-07T10:16:41.958Z,11.70
2023-03-07T10:19:43.027Z,11.73
2023-03-07T10:22:24.266Z,12.30
2023-03-07T10:25:14.839Z,10.45
2023-03-07T10:27:42.786Z,10.88
2023-03-07T10:30:16.865Z,9.80
2023-03-07T10:32:55.892Z,9.57
2023-03-07T10:35:31.980Z,13.00
2023-03-07T10:38:20.329Z,15.25
2023-03-07T10:40:54.008Z,14.40
2023-03-07T10:43:32.286Z,11.75
2023-03-07T10:46:23.865Z,15.98
2023-03-07T10:49:13.585Z,13.10
2023-03-07T10:52:06.815Z,11.25
2023-03-07T10:54:38.718Z,6.72
2023-03-07T10:57:17.924Z,5.10
2023-03-07T10:59:49.953Z,3.45
2023-03-07T11:02:29.040Z,5.10
2023-03-07T11:04:57.210Z,3.75
2023-03-07T11:07:34.727Z,3.47
2023-03-07T11:10:22.504Z,2.83
2023-03-07T11:12:49.534Z,9.10
2023-03-07T11:15:23.572Z,2.20
2023-03-07T11:17:52.398Z,1.90
2023-03-07T11:20:30.489Z,1.52
2023-03-07T11:23:31.964Z,1.77
2023-03-07T11:26:22.740Z,1.80
2023-03-07T11:29:08.374Z,1.27
2023-03-07T11:31:41.065Z,1.70
2023-03-07T11:34:35.761Z,2.40
2023-03-07T11:37:40.086Z,2.15
2023-03-07T11:40:44.931Z,1.80
2023-03-07T11:43:31.933Z,1.90
2023-03-07T11:46:07.269Z,2.53
2023-03-07T11:49:03.163Z,2.00
2023-03-07T11:51:51.964Z,2.58
2023-03-07T11:54:27.954Z,2.72
2023-03-07T11:57:00.123Z,2.83
2023-03-07T11:59:56.664Z,2.38
2023-03-07T12:02:55.624Z,2.17
2023-03-07T12:05:44.389Z,3.03
2023-03-07T12:08:16.984Z,3.13
2023-03-07T12:10:54.518Z,3.05
2023-03-07T12:13:58.198Z,2.35
2023-03-07T12:16:31.567Z,2.35
2023-03-07T12:19:24.155Z,2.22
2023-03-07T12:22:15.646Z,2.13
2023-03-07T12:25:06.093Z,2.13
2023-03-07T12:27:41.770Z,1.70
2023-03-07T12:30:17.975Z,1.70
2023-03-07T12:32:46.134Z,3.53
2023-03-07T12:35:24.584Z,3.80
2023-03-07T12:38:13.670Z,3.03
2023-03-07T12:40:45.282Z,4.38
2023-03-07T12:43:18.370Z,4.13
2023-03-07T12:45:54.830Z,4.80
2023-03-07T12:48:40.386Z,3.60
2023-03-07T12:51:16.787Z,3.03
2023-03-07T12:54:21.321Z,3.08
2023-03-07T12:57:16.003Z,2.83
2023-03-07T12:59:44.089Z,3.40
2023-03-07T13:02:41.598Z,2.72
2023-03-07T13:05:19.486Z,2.40
2023-03-07T13:07:47.975Z,2.22
2023-03-07T13:10:21.165Z,4.82
2023-03-07T13:12:49.831Z,3.15
2023-03-07T13:15:20.921Z,2.97
2023-03-07T13:17:47.739Z,2.17
2023-03-07T13:20:34.239Z,2.22
2023-03-07T13:23:23.217Z,3.10
2023-03-07T13:25:56.878Z,2.77
2023-03-07T13:28:37.876Z,2.13
2023-03-07T13:31:16.530Z,2.20
2023-03-07T13:33:43.858Z,3.47
2023-03-07T13:36:37.810Z,2.40
2023-03-07T13:39:38.056Z,2.65
2023-03-07T13:42:25.293Z,2.63
2023-03-07T13:44:52.261Z,3.30
2023-03-07T13:47:42.877Z,3.17
2023-03-07T13:50:35.101Z,3.13
2023-03-07T13:53:11.833Z,2.95
2023-03-07T13:55:42.301Z,3.05
2023-03-07T13:58:32.900Z,3.58
2023-03-07T14:01:04.816Z,4.05
2023-03-07T14:03:42.370Z,2.60
2023-03-07T14:06:21.495Z,1.70
2023-03-07T14:08:50.165Z,1.85
2023-03-07T14:11:30.787Z,1.40
2023-03-07T14:14:18.994Z,2.72
2023-03-07T14:17:21.513Z,1.48
2023-03-07T14:19:56.169Z,1.60
2023-03-07T14:22:40.562Z,1.70
2023-03-07T14:25:22.067Z,1.77
2023-03-07T14:28:00.927Z,1.83
2023-03-07T14:30:31.417Z,2.10
2023-03-07T14:32:59.158Z,2.10
2023-03-07T14:35:38.200Z,2.90
2023-03-07T14:38:22.163Z,2.28
2023-03-07T14:40:57.354Z,2.70
2023-03-07T14:43:51.252Z,3.08
2023-03-07T14:46:27.318Z,2.78
2023-03-07T14:49:05.051Z,2.67
2023-03-07T14:51:35.033Z,2.40
2023-03-07T14:54:08.993Z,2.65
2023-03-07T14:56:37.870Z,3.08
2023-03-07T14:59:05.810Z,3.22
2023-03-07T15:01:37.682Z,2.35
2023-03-07T15:04:19.807Z,2.90
2023-03-07T15:06:46.654Z,3.05
2023-03-07T15:09:13.746Z,3.30
2023-03-07T15:11:48.786Z,3.10
2023-03-07T15:14:38.764Z,3.70
2023-03-07T15:17:12.378Z,3.78
2023-03-07T15:19:54.168Z,4.15
2023-03-07T15:22:39.422Z,3.28
2023-03-07T15:25:17.798Z,6.90
2023-03-07T15:27:44.683Z,4.88
2023-03-07T15:30:23.555Z,4.07
2023-03-07T15:33:23.182Z,10.70
2023-03-07T15:36:11.744Z,4.50
2023-03-07T15:38:43.350Z,4.70
2023-03-07T15:41:33.804Z,3.63
2023-03-07T15:44:19.552Z,3.30
2023-03-07T15:46:53.149Z,3.92
2023-03-07T15:49:20.227Z,3.50
2023-03-07T15:51:49.689Z,4.53
2023-03-07T15:54:39.312Z,7.35
2023-03-07T15:57:18.014Z,4.03
2023-03-07T15:59:52.150Z,3.97
2023-03-07T16:02:39.962Z,2.20
2023-03-07T16:05:29.067Z,2.95
2023-03-07T16:07:57.557Z,2.13
2023-03-07T16:10:28.334Z,2.80
2023-03-07T16:12:56.968Z,3.22
2023-03-07T16:15:24.486Z,4.53
2023-03-07T16:17:55.016Z,3.72
2023-03-07T16:20:25.905Z,2.65
2023-03-07T16:22:53.656Z,4.63
2023-03-07T16:25:22.001Z,2.17
2023-03-07T16:27:57.901Z,2.58
2023-03-07T16:30:27.688Z,2.90
2023-03-07T16:32:56.251Z,3.00
2023-03-07T16:35:26.051Z,2.53
2023-03-07T16:40:22.868Z,2.15
2023-03-07T16:42:50.689Z,1.75
2023-03-07T16:45:28.075Z,1.90
2023-03-07T16:47:59.853Z,1.10
2023-03-07T16:50:32.092Z,1.55
2023-03-07T16:52:59.481Z,1.58
2023-03-07T16:55:26.836Z,1.10
2023-03-07T16:57:58.549Z,1.90
2023-03-07T17:00:26.877Z,1.05
2023-03-07T17:02:57.209Z,1.30
2023-03-07T17:05:27.330Z,1.67
2023-03-07T17:07:58.495Z,1.63
2023-03-07T17:10:26.679Z,1.42
2023-03-07T17:12:57.429Z,1.58
2023-03-07T17:15:30.478Z,1.45
2023-03-07T17:17:59.877Z,1.58
2023-03-07T17:20:27.726Z,1.55
2023-03-07T17:22:55.286Z,3.45
2023-03-07T17:25:23.082Z,2.33
2023-03-07T17:28:16.860Z,3.15
2023-03-07T17:30:45.607Z,3.22
2023-03-07T17:33:14.586Z,3.70
2023-03-07T17:35:42.421Z,3.37
2023-03-07T17:38:09.518Z,3.50
2023-03-07T17:40:37.049Z,5.80
2023-03-07T17:43:04.758Z,4.18
2023-03-07T17:45:31.904Z,4.55
2023-03-07T17:47:58.870Z,3.95
2023-03-07T17:50:26.060Z,4.30
2023-03-07T17:52:54.612Z,5.47
2023-03-07T17:55:24.998Z,3.95
2023-03-07T17:57:53.496Z,5.78
2023-03-07T18:00:21.237Z,4.72
2023-03-07T18:02:48.270Z,5.80
2023-03-07T18:05:16.729Z,5.07
2023-03-07T18:07:43.554Z,5.30
2023-03-07T18:10:11.602Z,5.25
2023-03-07T18:12:39.357Z,5.65
2023-03-07T18:15:13.045Z,5.53
2023-03-07T18:17:47.733Z,6.13
2023-03-07T18:20:19.756Z,5.47
2023-03-07T18:22:47.042Z,6.07
2023-03-07T18:25:16.040Z,6.40
2023-03-07T18:27:43.334Z,6.90
2023-03-07T18:30:11.862Z,6.68
2023-03-07T18:32:39.072Z,8.32
2023-03-07T18:35:06.615Z,7.20
2023-03-07T18:37:33.859Z,7.00
2023-03-07T18:40:00.940Z,7.40
2023-03-07T18:42:27.976Z,7.00
2023-03-07T18:44:55.022Z,8.00
2023-03-07T18:47:22.859Z,7.43
2023-03-07T18:49:51.336Z,7.28
2023-03-07T18:52:18.808Z,7.18
2023-03-07T18:54:45.665Z,7.43
2023-03-07T18:57:12.765Z,7.05
2023-03-07T18:59:39.536Z,6.47
2023-03-07T19:02:06.476Z,6.78
2023-03-07T19:04:33.446Z,6.85
2023-03-07T19:07:00.654Z,7.05
2023-03-07T19:09:27.859Z,8.30
2023-03-07T19:11:55.046Z,7.93
2023-03-07T19:14:22.062Z,8.63
2023-03-07T19:16:49.172Z,8.13
2023-03-07T19:19:16.167Z,7.68
2023-03-07T19:21:43.225Z,8.02
2023-03-07T19:24:11.911Z,8.40
2023-03-07T19:26:40.931Z,11.38
2023-03-07T19:29:09.730Z,9.17
2023-03-07T19:31:36.821Z,8.90
2023-03-07T19:34:06.151Z,10.45
2023-03-07T19:36:35.178Z,9.65
2023-03-07T19:39:03.338Z,9.60
2023-03-07T19:41:31.586Z,8.45
2023-03-07T19:43:59.937Z,7.78
2023-03-07T19:46:27.481Z,8.07
2023-03-07T19:48:54.298Z,7.97
2023-03-07T19:51:24.381Z,6.95
2023-03-07T19:53:51.835Z,6.65
2023-03-07T19:56:24.936Z,7.63
2023-03-07T19:58:51.875Z,7.22
2023-03-07T20:01:20.293Z,5.50
2023-03-07T20:03:47.847Z,6.03
2023-03-07T20:06:19.760Z,6.93
2023-03-07T20:08:51.608Z,7.78
2023-03-07T20:11:21.012Z,8.60
2023-03-07T20:13:49.113Z,8.00
2023-03-07T20:16:17.648Z,9.60
2023-03-07T20:18:52.720Z,8.43
2023-03-07T20:21:21.076Z,9.27
2023-03-07T20:23:49.452Z,8.82
2023-03-07T20:26:20.033Z,8.93
2023-03-07T20:28:47.320Z,8.32
2023-03-07T20:31:14.387Z,9.00
2023-03-07T20:33:46.601Z,7.88
2023-03-07T20:36:29.841Z,7.38
2023-03-07T20:38:58.808Z,7.25
2023-03-07T20:41:28.965Z,7.50
2023-03-07T20:44:03.662Z,8.18
2023-03-07T20:46:32.309Z,8.77
2023-03-07T20:49:01.786Z,7.95
2023-03-07T20:51:33.967Z,7.72
2023-03-07T20:54:06.537Z,7.95
2023-03-07T20:56:35.060Z,7.65
2023-03-07T20:59:03.271Z,7.15
2023-03-07T21:01:32.739Z,7.63
2023-03-07T21:04:08.023Z,8.43
2023-03-07T21:06:36.390Z,7.93
2023-03-07T21:09:08.028Z,8.82
2023-03-07T21:11:37.184Z,7.88
2023-03-07T21:14:04.510Z,6.65
2023-03-07T21:16:32.038Z,8.52
2023-03-07T21:19:05.101Z,8.45
2023-03-07T21:21:33.711Z,7.43
2023-03-07T21:24:00.993Z,8.32
2023-03-07T21:26:31.637Z,8.75
2023-03-07T21:28:59.235Z,8.50
2023-03-07T21:31:28.634Z,8.68
2023-03-07T21:33:58.112Z,18.60
2023-03-07T21:36:29.297Z,8.38
2023-03-07T21:38:58.427Z,9.35
2023-03-07T21:41:29.285Z,8.68
2023-03-07T21:43:57.387Z,8.68
2023-03-07T21:46:25.255Z,9.73
2023-03-07T21:48:52.594Z,9.55
2023-03-07T21:51:20.377Z,8.77
2023-03-07T21:53:47.834Z,9.27
2023-03-07T21:56:19.208Z,9.25
2023-03-07T21:58:50.011Z,9.02
2023-03-07T22:01:24.028Z,9.20
2023-03-07T22:03:59.181Z,9.55
2023-03-07T22:06:28.286Z,9.93
2023-03-07T22:08:55.328Z,10.50
2023-03-07T22:11:22.679Z,9.13
2023-03-07T22:13:50.665Z,9.02
2023-03-07T22:16:20.655Z,10.30
2023-03-07T22:18:55.732Z,9.82
2023-03-07T22:21:26.043Z,9.10
2023-03-07T22:24:01.018Z,9.32
2023-03-07T22:26:30.582Z,10.38
2023-03-07T22:28:57.832Z,10.02
2023-03-07T22:31:25.896Z,8.77
2023-03-07T22:33:53.074Z,9.25
2023-03-07T22:36:20.239Z,9.82
2023-03-07T22:38:47.235Z,10.40
2023-03-07T22:41:16.842Z,10.38
2023-03-07T22:43:44.048Z,11.65
2023-03-07T22:46:11.777Z,9.20
2023-03-07T22:48:39.565Z,9.10
2023-03-07T22:51:13.328Z,11.55
2023-03-07T22:53:40.338Z,10.70
2023-03-07T22:56:25.595Z,12.32
2023-03-07T22:58:53.427Z,10.98
2023-03-07T23:01:23.358Z,11.25
2023-03-07T23:03:51.578Z,11.00
2023-03-07T23:06:20.937Z,10.57
2023-03-07T23:08:51.135Z,10.25
2023-03-07T23:11:21.303Z,12.63
2023-03-07T23:13:48.290Z,12.30
2023-03-07T23:16:17.731Z,11.38
2023-03-07T23:18:46.130Z,11.55
2023-03-07T23:21:15.727Z,10.73
2023-03-07T23:23:45.162Z,11.25
2023-03-07T23:26:22.324Z,11.60
2023-03-07T23:28:52.543Z,10.38
2023-03-07T23:31:29.458Z,11.15
2023-03-07T23:33:58.604Z,10.05
2023-03-07T23:36:27.592Z,9.88
2023-03-07T23:38:55.258Z,10.40
2023-03-07T23:41:22.694Z,10.35
2023-03-07T23:43:54.435Z,10.57
2023-03-07T23:46:22.108Z,9.40
2023-03-07T23:48:50.347Z,9.45
2023-03-07T23:51:17.302Z,10.82
2023-03-07T23:53:44.328Z,10.43
2023-03-07T23:56:12.605Z,11.15
2023-03-07T23:58:40.139Z,10.13
